sensor_id;sensor_type;location;lat;lon;timestamp;pressure;altitude;pressure_sealevel;temperature;humidity
10946;BME280;5525;42.648;23.368;2024-01-06T00:02:01;94556.66;;;6.44;100.00
10946;BME280;5525;42.648;23.368;2024-01-06T00:04:28;94568.41;;;5.94;100.00
10946;BME280;5525;42.648;23.368;2024-01-06T00:06:55;94553.44;;;6.07;100.00
10946;BME280;5525;42.648;23.368;2024-01-06T00:09:22;94568.69;;;6.20;100.00
10946;BME280;5525;42.648;23.368;2024-01-06T00:11:49;94537.53;;;6.24;100.00
10946;BME280;5525;42.648;23.368;2024-01-06T00:14:17;94534.16;;;6.18;100.00
10946;BME280;5525;42.648;23.368;2024-01-06T00:16:44;94529.22;;;6.12;100.00
10946;BME280;5525;42.648;23.368;2024-01-06T00:19:10;94541.88;;;6.20;100.00
10946;BME280;5525;42.648;23.368;2024-01-06T00:21:37;94562.16;;;6.12;100.00
10946;BME280;5525;42.648;23.368;2024-01-06T00:24:04;94567.06;;;5.78;100.00
10946;BME280;5525;42.648;23.368;2024-01-06T00:26:33;94577.78;;;5.78;100.00
10946;BME280;5525;42.648;23.368;2024-01-06T00:28:59;94576.13;;;5.82;100.00
10946;BME280;5525;42.648;23.368;2024-01-06T00:31:27;94540.28;;;5.78;100.00
10946;BME280;5525;42.648;23.368;2024-01-06T00:33:54;94558.06;;;5.88;100.00
10946;BME280;5525;42.648;23.368;2024-01-06T00:36:21;94574.38;;;5.59;100.00
10946;BME280;5525;42.648;23.368;2024-01-06T00:38:48;94566.88;;;5.75;100.00
10946;BME280;5525;42.648;23.368;2024-01-06T00:41:15;94564.31;;;5.83;100.00
10946;BME280;5525;42.648;23.368;2024-01-06T00:43:42;94569.09;;;5.86;100.00
10946;BME280;5525;42.648;23.368;2024-01-06T00:46:09;94573.69;;;5.99;100.00
10946;BME280;5525;42.648;23.368;2024-01-06T00:48:37;94567.03;;;6.10;100.00
10946;BME280;5525;42.648;23.368;2024-01-06T00:51:04;94560.06;;;6.09;100.00
10946;BME280;5525;42.648;23.368;2024-01-06T00:53:30;94560.28;;;6.13;100.00
10946;BME280;5525;42.648;23.368;2024-01-06T00:55:57;94548.94;;;6.16;100.00
10946;BME280;5525;42.648;23.368;2024-01-06T00:58:24;94553.50;;;6.15;100.00
10946;BME280;5525;42.648;23.368;2024-01-06T01:00:50;94561.53;;;6.29;100.00
10946;BME280;5525;42.648;23.368;2024-01-06T01:03:17;94553.50;;;6.29;100.00
10946;BME280;5525;42.648;23.368;2024-01-06T01:05:45;94547.66;;;6.27;100.00
10946;BME280;5525;42.648;23.368;2024-01-06T01:08:12;94557.38;;;6.23;100.00
10946;BME280;5525;42.648;23.368;2024-01-06T01:10:39;94560.66;;;6.33;100.00
10946;BME280;5525;42.648;23.368;2024-01-06T01:13:06;94552.94;;;6.32;100.00
10946;BME280;5525;42.648;23.368;2024-01-06T01:15:34;94556.91;;;6.21;100.00
10946;BME280;5525;42.648;23.368;2024-01-06T01:18:01;94554.09;;;6.12;100.00
10946;BME280;5525;42.648;23.368;2024-01-06T01:20:28;94543.50;;;6.07;100.00
10946;BME280;5525;42.648;23.368;2024-01-06T01:22:56;94549.03;;;6.11;100.00
10946;BME280;5525;42.648;23.368;2024-01-06T01:25:23;94538.72;;;6.04;100.00
10946;BME280;5525;42.648;23.368;2024-01-06T01:27:50;94539.00;;;6.03;100.00
10946;BME280;5525;42.648;23.368;2024-01-06T01:30:16;94535.22;;;5.77;100.00
10946;BME280;5525;42.648;23.368;2024-01-06T01:32:43;94528.34;;;5.57;100.00
10946;BME280;5525;42.648;23.368;2024-01-06T01:35:10;94535.03;;;5.73;100.00
10946;BME280;5525;42.648;23.368;2024-01-06T01:37:37;94530.66;;;5.77;100.00
10946;BME280;5525;42.648;23.368;2024-01-06T01:40:06;94512.09;;;5.67;100.00
10946;BME280;5525;42.648;23.368;2024-01-06T01:42:33;94528.84;;;5.59;100.00
10946;BME280;5525;42.648;23.368;2024-01-06T01:45:00;94526.94;;;5.60;100.00
10946;BME280;5525;42.648;23.368;2024-01-06T01:47:27;94514.28;;;5.65;100.00
10946;BME280;5525;42.648;23.368;2024-01-06T01:49:54;94506.25;;;5.65;100.00
10946;BME280;5525;42.648;23.368;2024-01-06T01:52:22;94519.31;;;5.40;100.00
10946;BME280;5525;42.648;23.368;2024-01-06T01:54:49;94508.41;;;5.63;100.00
10946;BME280;5525;42.648;23.368;2024-01-06T01:57:17;94504.16;;;5.62;100.00
10946;BME280;5525;42.648;23.368;2024-01-06T01:59:45;94502.38;;;5.58;100.00
10946;BME280;5525;42.648;23.368;2024-01-06T02:02:12;94508.53;;;5.72;100.00
10946;BME280;5525;42.648;23.368;2024-01-06T02:04:38;94515.28;;;5.83;100.00
10946;BME280;5525;42.648;23.368;2024-01-06T02:07:05;94499.78;;;5.80;100.00
10946;BME280;5525;42.648;23.368;2024-01-06T02:09:32;94510.31;;;5.63;100.00
10946;BME280;5525;42.648;23.368;2024-01-06T02:11:59;94506.84;;;5.76;100.00
10946;BME280;5525;42.648;23.368;2024-01-06T02:14:27;94499.69;;;5.58;100.00
10946;BME280;5525;42.648;23.368;2024-01-06T02:16:54;94492.75;;;5.70;100.00
10946;BME280;5525;42.648;23.368;2024-01-06T02:19:21;94473.28;;;5.78;100.00
10946;BME280;5525;42.648;23.368;2024-01-06T02:21:51;94472.81;;;5.76;100.00
10946;BME280;5525;42.648;23.368;2024-01-06T02:24:18;94476.88;;;5.74;100.00
10946;BME280;5525;42.648;23.368;2024-01-06T02:26:44;94464.81;;;5.90;100.00
10946;BME280;5525;42.648;23.368;2024-01-06T02:29:11;94467.47;;;5.90;100.00
10946;BME280;5525;42.648;23.368;2024-01-06T02:31:37;94466.06;;;5.92;100.00
10946;BME280;5525;42.648;23.368;2024-01-06T02:34:04;94469.84;;;5.91;100.00
10946;BME280;5525;42.648;23.368;2024-01-06T02:36:31;94457.66;;;5.72;100.00
10946;BME280;5525;42.648;23.368;2024-01-06T02:38:59;94461.22;;;5.67;100.00
10946;BME280;5525;42.648;23.368;2024-01-06T02:41:26;94460.19;;;5.77;100.00
10946;BME280;5525;42.648;23.368;2024-01-06T02:43:54;94454.69;;;5.87;100.00
10946;BME280;5525;42.648;23.368;2024-01-06T02:46:21;94438.69;;;5.82;100.00
10946;BME280;5525;42.648;23.368;2024-01-06T02:48:48;94446.16;;;5.85;100.00
10946;BME280;5525;42.648;23.368;2024-01-06T02:51:15;94457.25;;;6.05;100.00
10946;BME280;5525;42.648;23.368;2024-01-06T02:53:41;94449.09;;;6.10;100.00
10946;BME280;5525;42.648;23.368;2024-01-06T02:56:11;94447.13;;;6.02;100.00
10946;BME280;5525;42.648;23.368;2024-01-06T02:58:38;94438.75;;;6.17;100.00
10946;BME280;5525;42.648;23.368;2024-01-06T03:01:05;94429.31;;;6.20;100.00
10946;BME280;5525;42.648;23.368;2024-01-06T03:03:32;94422.06;;;6.20;100.00
10946;BME280;5525;42.648;23.368;2024-01-06T03:05:59;94428.47;;;6.33;100.00
10946;BME280;5525;42.648;23.368;2024-01-06T03:08:25;94419.88;;;6.22;100.00
10946;BME280;5525;42.648;23.368;2024-01-06T03:10:52;94420.19;;;6.21;100.00
10946;BME280;5525;42.648;23.368;2024-01-06T03:13:20;94419.34;;;6.34;100.00
10946;BME280;5525;42.648;23.368;2024-01-06T03:15:47;94420.50;;;6.41;100.00
10946;BME280;5525;42.648;23.368;2024-01-06T03:18:14;94421.56;;;6.54;100.00
10946;BME280;5525;42.648;23.368;2024-01-06T03:20:41;94420.09;;;6.48;100.00
10946;BME280;5525;42.648;23.368;2024-01-06T03:23:08;94402.94;;;6.35;100.00
10946;BME280;5525;42.648;23.368;2024-01-06T03:25:34;94404.19;;;6.51;100.00
10946;BME280;5525;42.648;23.368;2024-01-06T03:28:01;94403.56;;;6.54;100.00
10946;BME280;5525;42.648;23.368;2024-01-06T03:30:29;94417.59;;;6.51;100.00
10946;BME280;5525;42.648;23.368;2024-01-06T03:32:56;94413.97;;;6.34;100.00
10946;BME280;5525;42.648;23.368;2024-01-06T03:35:23;94409.00;;;6.05;100.00
10946;BME280;5525;42.648;23.368;2024-01-06T03:37:50;94405.47;;;5.96;100.00
10946;BME280;5525;42.648;23.368;2024-01-06T03:40:17;94418.06;;;5.96;100.00
10946;BME280;5525;42.648;23.368;2024-01-06T03:42:43;94409.72;;;5.97;100.00
10946;BME280;5525;42.648;23.368;2024-01-06T03:45:10;94410.13;;;5.91;100.00
10946;BME280;5525;42.648;23.368;2024-01-06T03:47:38;94409.13;;;5.87;100.00
10946;BME280;5525;42.648;23.368;2024-01-06T03:50:05;94418.16;;;5.91;100.00
10946;BME280;5525;42.648;23.368;2024-01-06T03:52:32;94404.94;;;5.94;100.00
10946;BME280;5525;42.648;23.368;2024-01-06T03:54:59;94398.50;;;5.95;100.00
10946;BME280;5525;42.648;23.368;2024-01-06T03:57:26;94407.03;;;5.97;100.00
10946;BME280;5525;42.648;23.368;2024-01-06T03:59:52;94413.66;;;6.00;100.00
10946;BME280;5525;42.648;23.368;2024-01-06T04:02:19;94408.13;;;5.96;100.00
10946;BME280;5525;42.648;23.368;2024-01-06T04:04:47;94413.69;;;5.86;100.00
10946;BME280;5525;42.648;23.368;2024-01-06T04:07:14;94414.00;;;5.85;100.00
10946;BME280;5525;42.648;23.368;2024-01-06T04:09:42;94413.41;;;5.88;100.00
10946;BME280;5525;42.648;23.368;2024-01-06T04:12:09;94404.28;;;5.89;100.00
10946;BME280;5525;42.648;23.368;2024-01-06T04:14:35;94417.97;;;5.87;100.00
10946;BME280;5525;42.648;23.368;2024-01-06T04:17:02;94401.41;;;5.72;100.00
10946;BME280;5525;42.648;23.368;2024-01-06T04:19:29;94388.97;;;5.76;100.00
10946;BME280;5525;42.648;23.368;2024-01-06T04:21:58;94398.72;;;5.72;100.00
10946;BME280;5525;42.648;23.368;2024-01-06T04:24:25;94398.28;;;5.78;100.00
10946;BME280;5525;42.648;23.368;2024-01-06T04:26:52;94397.00;;;5.89;100.00
10946;BME280;5525;42.648;23.368;2024-01-06T04:29:19;94399.53;;;5.86;100.00
10946;BME280;5525;42.648;23.368;2024-01-06T04:31:46;94404.38;;;5.57;100.00
10946;BME280;5525;42.648;23.368;2024-01-06T04:34:12;94414.78;;;5.72;100.00
10946;BME280;5525;42.648;23.368;2024-01-06T04:36:39;94428.56;;;5.65;100.00
10946;BME280;5525;42.648;23.368;2024-01-06T04:39:07;94434.91;;;5.42;100.00
10946;BME280;5525;42.648;23.368;2024-01-06T04:41:34;94429.75;;;5.18;100.00
10946;BME280;5525;42.648;23.368;2024-01-06T04:44:01;94430.34;;;5.29;100.00
10946;BME280;5525;42.648;23.368;2024-01-06T04:46:28;94422.50;;;5.19;100.00
10946;BME280;5525;42.648;23.368;2024-01-06T04:48:56;94422.31;;;5.15;100.00
10946;BME280;5525;42.648;23.368;2024-01-06T04:51:23;94420.03;;;5.22;100.00
10946;BME280;5525;42.648;23.368;2024-01-06T04:53:49;94421.31;;;5.39;100.00
10946;BME280;5525;42.648;23.368;2024-01-06T04:56:17;94436.31;;;5.40;100.00
10946;BME280;5525;42.648;23.368;2024-01-06T04:58:44;94426.38;;;5.40;100.00
10946;BME280;5525;42.648;23.368;2024-01-06T05:01:11;94426.97;;;5.37;100.00
10946;BME280;5525;42.648;23.368;2024-01-06T05:03:38;94424.81;;;5.39;100.00
10946;BME280;5525;42.648;23.368;2024-01-06T05:06:05;94429.34;;;5.11;100.00
10946;BME280;5525;42.648;23.368;2024-01-06T05:08:32;94417.91;;;5.06;100.00
10946;BME280;5525;42.648;23.368;2024-01-06T05:10:59;94415.16;;;4.97;100.00
10946;BME280;5525;42.648;23.368;2024-01-06T05:13:28;94418.56;;;4.84;100.00
10946;BME280;5525;42.648;23.368;2024-01-06T05:15:55;94411.66;;;4.97;100.00
10946;BME280;5525;42.648;23.368;2024-01-06T05:18:21;94419.59;;;4.88;100.00
10946;BME280;5525;42.648;23.368;2024-01-06T05:20:48;94407.22;;;4.60;100.00
10946;BME280;5525;42.648;23.368;2024-01-06T05:23:15;94425.03;;;4.51;100.00
10946;BME280;5525;42.648;23.368;2024-01-06T05:25:42;94406.72;;;4.58;100.00
10946;BME280;5525;42.648;23.368;2024-01-06T05:28:09;94404.28;;;4.75;100.00
10946;BME280;5525;42.648;23.368;2024-01-06T05:30:38;94397.16;;;4.71;100.00
10946;BME280;5525;42.648;23.368;2024-01-06T05:33:05;94395.91;;;4.82;100.00
10946;BME280;5525;42.648;23.368;2024-01-06T05:35:32;94403.75;;;4.92;100.00
10946;BME280;5525;42.648;23.368;2024-01-06T05:37:59;94385.13;;;4.87;100.00
10946;BME280;5525;42.648;23.368;2024-01-06T05:40:26;94390.78;;;4.99;100.00
10946;BME280;5525;42.648;23.368;2024-01-06T05:42:53;94402.06;;;4.96;100.00
10946;BME280;5525;42.648;23.368;2024-01-06T05:45:21;94390.69;;;4.90;100.00
10946;BME280;5525;42.648;23.368;2024-01-06T05:47:50;94379.56;;;4.97;100.00
10946;BME280;5525;42.648;23.368;2024-01-06T05:50:17;94401.56;;;4.94;100.00
10946;BME280;5525;42.648;23.368;2024-01-06T05:52:44;94380.34;;;4.84;100.00
10946;BME280;5525;42.648;23.368;2024-01-06T05:55:12;94390.09;;;5.07;100.00
10946;BME280;5525;42.648;23.368;2024-01-06T05:57:39;94386.81;;;5.10;100.00
10946;BME280;5525;42.648;23.368;2024-01-06T06:00:08;94372.25;;;5.02;100.00
10946;BME280;5525;42.648;23.368;2024-01-06T06:02:36;94368.69;;;5.20;100.00
10946;BME280;5525;42.648;23.368;2024-01-06T06:05:06;94367.78;;;5.25;100.00
10946;BME280;5525;42.648;23.368;2024-01-06T06:07:33;94371.06;;;5.36;100.00
10946;BME280;5525;42.648;23.368;2024-01-06T06:10:06;94375.13;;;5.47;100.00
10946;BME280;5525;42.648;23.368;2024-01-06T06:12:33;94383.38;;;5.50;100.00
10946;BME280;5525;42.648;23.368;2024-01-06T06:14:59;94377.22;;;5.36;100.00
10946;BME280;5525;42.648;23.368;2024-01-06T06:17:26;94368.69;;;5.20;100.00
10946;BME280;5525;42.648;23.368;2024-01-06T06:19:53;94376.34;;;5.13;100.00
10946;BME280;5525;42.648;23.368;2024-01-06T06:22:21;94368.91;;;5.24;100.00
10946;BME280;5525;42.648;23.368;2024-01-06T06:24:48;94369.38;;;5.26;100.00
10946;BME280;5525;42.648;23.368;2024-01-06T06:27:15;94370.56;;;5.20;100.00
10946;BME280;5525;42.648;23.368;2024-01-06T06:29:42;94380.66;;;5.23;100.00
10946;BME280;5525;42.648;23.368;2024-01-06T06:32:08;94378.88;;;5.18;100.00
10946;BME280;5525;42.648;23.368;2024-01-06T06:34:35;94378.22;;;5.13;100.00
10946;BME280;5525;42.648;23.368;2024-01-06T06:37:02;94392.03;;;4.88;100.00
10946;BME280;5525;42.648;23.368;2024-01-06T06:39:31;94385.72;;;5.11;100.00
10946;BME280;5525;42.648;23.368;2024-01-06T06:41:59;94373.25;;;5.20;100.00
10946;BME280;5525;42.648;23.368;2024-01-06T06:44:26;94388.63;;;5.28;100.00
10946;BME280;5525;42.648;23.368;2024-01-06T06:46:53;94392.78;;;5.20;100.00
10946;BME280;5525;42.648;23.368;2024-01-06T06:49:20;94396.63;;;5.42;100.00
10946;BME280;5525;42.648;23.368;2024-01-06T06:51:47;94396.13;;;5.26;100.00
10946;BME280;5525;42.648;23.368;2024-01-06T06:54:14;94381.94;;;5.12;100.00
10946;BME280;5525;42.648;23.368;2024-01-06T06:56:42;94387.91;;;5.09;100.00
10946;BME280;5525;42.648;23.368;2024-01-06T06:59:10;94396.44;;;5.11;100.00
10946;BME280;5525;42.648;23.368;2024-01-06T07:01:37;94387.22;;;5.17;100.00
10946;BME280;5525;42.648;23.368;2024-01-06T07:04:04;94388.53;;;5.33;100.00
10946;BME280;5525;42.648;23.368;2024-01-06T07:06:31;94388.41;;;5.52;100.00
10946;BME280;5525;42.648;23.368;2024-01-06T07:08:58;94380.66;;;5.64;100.00
10946;BME280;5525;42.648;23.368;2024-01-06T07:11:25;94383.53;;;5.81;100.00
10946;BME280;5525;42.648;23.368;2024-01-06T07:13:54;94383.16;;;5.87;100.00
10946;BME280;5525;42.648;23.368;2024-01-06T07:16:21;94391.59;;;5.67;100.00
10946;BME280;5525;42.648;23.368;2024-01-06T07:18:47;94384.22;;;5.73;100.00
10946;BME280;5525;42.648;23.368;2024-01-06T07:21:14;94376.09;;;5.78;100.00
10946;BME280;5525;42.648;23.368;2024-01-06T07:23:41;94375.22;;;5.55;100.00
10946;BME280;5525;42.648;23.368;2024-01-06T07:26:09;94373.81;;;5.85;100.00
10946;BME280;5525;42.648;23.368;2024-01-06T07:28:35;94389.97;;;5.93;100.00
10946;BME280;5525;42.648;23.368;2024-01-06T07:31:04;94381.50;;;6.13;100.00
10946;BME280;5525;42.648;23.368;2024-01-06T07:33:31;94370.72;;;6.27;100.00
10946;BME280;5525;42.648;23.368;2024-01-06T07:35:57;94362.31;;;6.42;100.00
10946;BME280;5525;42.648;23.368;2024-01-06T07:38:24;94379.50;;;6.41;100.00
10946;BME280;5525;42.648;23.368;2024-01-06T07:40:51;94378.75;;;6.71;100.00
10946;BME280;5525;42.648;23.368;2024-01-06T07:43:19;94374.47;;;6.26;100.00
10946;BME280;5525;42.648;23.368;2024-01-06T07:45:46;94374.00;;;5.75;100.00
10946;BME280;5525;42.648;23.368;2024-01-06T07:48:15;94368.44;;;6.20;100.00
10946;BME280;5525;42.648;23.368;2024-01-06T07:50:41;94373.75;;;6.56;100.00
10946;BME280;5525;42.648;23.368;2024-01-06T07:53:08;94373.47;;;6.57;100.00
10946;BME280;5525;42.648;23.368;2024-01-06T07:55:35;94370.69;;;6.93;100.00
10946;BME280;5525;42.648;23.368;2024-01-06T07:58:02;94359.22;;;6.79;100.00
10946;BME280;5525;42.648;23.368;2024-01-06T08:00:29;94381.56;;;6.97;100.00
10946;BME280;5525;42.648;23.368;2024-01-06T08:02:56;94353.56;;;7.11;100.00
10946;BME280;5525;42.648;23.368;2024-01-06T08:05:24;94391.09;;;7.33;100.00
10946;BME280;5525;42.648;23.368;2024-01-06T08:07:51;94355.81;;;7.26;100.00
10946;BME280;5525;42.648;23.368;2024-01-06T08:10:18;94384.00;;;7.46;100.00
10946;BME280;5525;42.648;23.368;2024-01-06T08:12:46;94359.25;;;7.49;100.00
10946;BME280;5525;42.648;23.368;2024-01-06T08:15:13;94388.19;;;7.60;100.00
10946;BME280;5525;42.648;23.368;2024-01-06T08:17:40;94359.75;;;7.68;100.00
10946;BME280;5525;42.648;23.368;2024-01-06T08:20:09;94355.13;;;7.60;100.00
10946;BME280;5525;42.648;23.368;2024-01-06T08:22:37;94367.31;;;7.66;100.00
10946;BME280;5525;42.648;23.368;2024-01-06T08:25:04;94351.84;;;7.71;100.00
10946;BME280;5525;42.648;23.368;2024-01-06T08:27:32;94372.09;;;7.86;100.00
10946;BME280;5525;42.648;23.368;2024-01-06T08:29:59;94378.94;;;8.00;100.00
10946;BME280;5525;42.648;23.368;2024-01-06T08:32:26;94373.88;;;8.07;100.00
10946;BME280;5525;42.648;23.368;2024-01-06T08:34:53;94379.56;;;8.06;100.00
10946;BME280;5525;42.648;23.368;2024-01-06T08:37:20;94363.31;;;8.19;100.00
10946;BME280;5525;42.648;23.368;2024-01-06T08:39:48;94364.25;;;7.98;100.00
10946;BME280;5525;42.648;23.368;2024-01-06T08:42:15;94364.44;;;8.35;100.00
10946;BME280;5525;42.648;23.368;2024-01-06T08:44:41;94351.63;;;8.49;100.00
10946;BME280;5525;42.648;23.368;2024-01-06T08:47:09;94359.84;;;8.70;100.00
10946;BME280;5525;42.648;23.368;2024-01-06T08:49:36;94349.06;;;8.70;100.00
10946;BME280;5525;42.648;23.368;2024-01-06T08:52:03;94334.97;;;8.65;100.00
10946;BME280;5525;42.648;23.368;2024-01-06T08:54:30;94350.19;;;8.52;100.00
10946;BME280;5525;42.648;23.368;2024-01-06T08:56:58;94357.16;;;8.70;100.00
10946;BME280;5525;42.648;23.368;2024-01-06T08:59:25;94348.84;;;9.01;100.00
10946;BME280;5525;42.648;23.368;2024-01-06T09:01:52;94347.94;;;9.34;100.00
10946;BME280;5525;42.648;23.368;2024-01-06T09:04:19;94330.94;;;9.71;100.00
10946;BME280;5525;42.648;23.368;2024-01-06T09:06:47;94352.50;;;9.71;100.00
10946;BME280;5525;42.648;23.368;2024-01-06T09:09:14;94338.97;;;9.80;100.00
10946;BME280;5525;42.648;23.368;2024-01-06T09:11:40;94324.00;;;9.91;100.00
10946;BME280;5525;42.648;23.368;2024-01-06T09:14:10;94330.72;;;9.76;100.00
10946;BME280;5525;42.648;23.368;2024-01-06T09:16:37;94335.97;;;10.02;100.00
10946;BME280;5525;42.648;23.368;2024-01-06T09:19:04;94303.72;;;10.14;100.00
10946;BME280;5525;42.648;23.368;2024-01-06T09:21:31;94329.88;;;10.13;100.00
10946;BME280;5525;42.648;23.368;2024-01-06T09:23:58;94310.56;;;10.11;100.00
10946;BME280;5525;42.648;23.368;2024-01-06T09:26:26;94331.56;;;9.97;100.00
10946;BME280;5525;42.648;23.368;2024-01-06T09:28:52;94287.44;;;10.02;100.00
10946;BME280;5525;42.648;23.368;2024-01-06T09:31:20;94316.31;;;9.14;100.00
10946;BME280;5525;42.648;23.368;2024-01-06T09:33:47;94279.41;;;9.15;100.00
10946;BME280;5525;42.648;23.368;2024-01-06T09:36:15;94293.25;;;9.34;100.00
10946;BME280;5525;42.648;23.368;2024-01-06T09:38:42;94295.28;;;9.66;100.00
10946;BME280;5525;42.648;23.368;2024-01-06T09:41:08;94290.91;;;9.82;100.00
10946;BME280;5525;42.648;23.368;2024-01-06T09:43:35;94287.22;;;9.86;100.00
10946;BME280;5525;42.648;23.368;2024-01-06T09:46:06;94280.34;;;9.97;100.00
10946;BME280;5525;42.648;23.368;2024-01-06T09:48:40;94278.22;;;10.03;100.00
10946;BME280;5525;42.648;23.368;2024-01-06T09:51:09;94295.91;;;9.71;100.00
10946;BME280;5525;42.648;23.368;2024-01-06T09:53:43;94265.66;;;9.37;100.00
10946;BME280;5525;42.648;23.368;2024-01-06T09:56:14;94283.75;;;9.57;100.00
10946;BME280;5525;42.648;23.368;2024-01-06T09:58:41;94259.03;;;9.55;100.00
10946;BME280;5525;42.648;23.368;2024-01-06T10:01:10;94260.97;;;9.75;100.00
10946;BME280;5525;42.648;23.368;2024-01-06T10:03:38;94252.19;;;9.86;100.00
10946;BME280;5525;42.648;23.368;2024-01-06T10:06:06;94274.13;;;9.56;100.00
10946;BME280;5525;42.648;23.368;2024-01-06T10:08:35;94257.28;;;9.79;100.00
10946;BME280;5525;42.648;23.368;2024-01-06T10:11:02;94251.06;;;10.08;100.00
10946;BME280;5525;42.648;23.368;2024-01-06T10:13:29;94235.84;;;10.03;100.00
10946;BME280;5525;42.648;23.368;2024-01-06T10:15:56;94254.94;;;9.98;100.00
10946;BME280;5525;42.648;23.368;2024-01-06T10:18:24;94221.00;;;9.97;100.00
10946;BME280;5525;42.648;23.368;2024-01-06T10:20:53;94232.44;;;9.94;100.00
10946;BME280;5525;42.648;23.368;2024-01-06T10:23:22;94236.97;;;9.82;100.00
10946;BME280;5525;42.648;23.368;2024-01-06T10:25:51;94212.09;;;9.76;100.00
10946;BME280;5525;42.648;23.368;2024-01-06T10:28:18;94219.38;;;9.64;100.00
10946;BME280;5525;42.648;23.368;2024-01-06T10:30:45;94224.03;;;9.75;100.00
10946;BME280;5525;42.648;23.368;2024-01-06T10:33:12;94217.69;;;9.92;100.00
10946;BME280;5525;42.648;23.368;2024-01-06T10:35:39;94211.97;;;9.93;100.00
10946;BME280;5525;42.648;23.368;2024-01-06T10:38:08;94218.97;;;9.94;100.00
10946;BME280;5525;42.648;23.368;2024-01-06T10:40:34;94206.56;;;9.93;100.00
10946;BME280;5525;42.648;23.368;2024-01-06T10:43:01;94206.34;;;9.86;100.00
10946;BME280;5525;42.648;23.368;2024-01-06T10:45:30;94198.97;;;9.75;100.00
10946;BME280;5525;42.648;23.368;2024-01-06T10:47:57;94191.94;;;9.82;100.00
10946;BME280;5525;42.648;23.368;2024-01-06T10:50:24;94192.38;;;9.84;100.00
10946;BME280;5525;42.648;23.368;2024-01-06T10:52:55;94186.69;;;9.65;100.00
10946;BME280;5525;42.648;23.368;2024-01-06T10:55:25;94192.84;;;9.86;100.00
10946;BME280;5525;42.648;23.368;2024-01-06T10:57:54;94185.94;;;9.97;100.00
10946;BME280;5525;42.648;23.368;2024-01-06T11:00:22;94184.28;;;10.05;100.00
10946;BME280;5525;42.648;23.368;2024-01-06T11:02:49;94167.69;;;10.15;100.00
10946;BME280;5525;42.648;23.368;2024-01-06T11:05:18;94177.13;;;10.09;100.00
10946;BME280;5525;42.648;23.368;2024-01-06T11:07:47;94153.34;;;10.02;100.00
10946;BME280;5525;42.648;23.368;2024-01-06T11:10:18;94161.22;;;10.28;100.00
10946;BME280;5525;42.648;23.368;2024-01-06T11:13:06;94160.78;;;10.38;100.00
10946;BME280;5525;42.648;23.368;2024-01-06T11:15:39;94153.69;;;10.34;100.00
10946;BME280;5525;42.648;23.368;2024-01-06T11:18:06;94147.88;;;10.32;100.00
10946;BME280;5525;42.648;23.368;2024-01-06T11:20:33;94145.94;;;10.32;100.00
10946;BME280;5525;42.648;23.368;2024-01-06T11:23:18;94143.94;;;10.41;100.00
10946;BME280;5525;42.648;23.368;2024-01-06T11:25:46;94131.91;;;10.63;100.00
10946;BME280;5525;42.648;23.368;2024-01-06T11:28:16;94144.19;;;10.84;100.00
10946;BME280;5525;42.648;23.368;2024-01-06T11:30:43;94120.75;;;11.24;100.00
10946;BME280;5525;42.648;23.368;2024-01-06T11:33:10;94125.44;;;11.51;100.00
10946;BME280;5525;42.648;23.368;2024-01-06T11:35:38;94111.63;;;12.24;100.00
10946;BME280;5525;42.648;23.368;2024-01-06T11:38:07;94117.66;;;12.79;100.00
10946;BME280;5525;42.648;23.368;2024-01-06T11:40:35;94112.34;;;12.98;100.00
10946;BME280;5525;42.648;23.368;2024-01-06T11:43:04;94090.97;;;13.28;100.00
10946;BME280;5525;42.648;23.368;2024-01-06T11:45:34;94089.28;;;13.04;97.97
10946;BME280;5525;42.648;23.368;2024-01-06T11:48:02;94095.56;;;12.93;95.97
10946;BME280;5525;42.648;23.368;2024-01-06T11:50:30;94096.88;;;12.83;95.62
10946;BME280;5525;42.648;23.368;2024-01-06T11:52:58;94075.75;;;12.42;99.06
10946;BME280;5525;42.648;23.368;2024-01-06T11:55:25;94065.63;;;12.39;100.00
10946;BME280;5525;42.648;23.368;2024-01-06T11:57:53;94065.69;;;12.27;100.00
10946;BME280;5525;42.648;23.368;2024-01-06T12:00:21;94046.50;;;12.32;100.00
10946;BME280;5525;42.648;23.368;2024-01-06T12:02:49;94057.50;;;12.39;100.00
10946;BME280;5525;42.648;23.368;2024-01-06T12:05:18;94054.09;;;12.42;100.00
10946;BME280;5525;42.648;23.368;2024-01-06T12:07:53;94043.34;;;12.61;100.00
10946;BME280;5525;42.648;23.368;2024-01-06T12:10:21;94043.16;;;12.70;100.00
10946;BME280;5525;42.648;23.368;2024-01-06T12:12:58;94028.13;;;12.57;100.00
10946;BME280;5525;42.648;23.368;2024-01-06T12:15:25;94028.84;;;12.54;100.00
10946;BME280;5525;42.648;23.368;2024-01-06T12:17:53;94020.97;;;12.49;100.00
10946;BME280;5525;42.648;23.368;2024-01-06T12:20:21;94004.22;;;12.12;100.00
10946;BME280;5525;42.648;23.368;2024-01-06T12:22:48;94011.28;;;12.01;100.00
10946;BME280;5525;42.648;23.368;2024-01-06T12:25:15;94017.66;;;12.24;100.00
10946;BME280;5525;42.648;23.368;2024-01-06T12:27:43;94038.88;;;12.07;100.00
10946;BME280;5525;42.648;23.368;2024-01-06T12:30:13;94054.25;;;11.75;100.00
10946;BME280;5525;42.648;23.368;2024-01-06T12:32:42;94062.09;;;11.25;100.00
10946;BME280;5525;42.648;23.368;2024-01-06T12:35:10;94048.94;;;11.23;100.00
10946;BME280;5525;42.648;23.368;2024-01-06T12:37:37;94052.63;;;11.58;100.00
10946;BME280;5525;42.648;23.368;2024-01-06T12:40:05;94031.00;;;11.58;100.00
10946;BME280;5525;42.648;23.368;2024-01-06T12:42:32;94040.66;;;11.59;100.00
10946;BME280;5525;42.648;23.368;2024-01-06T12:44:58;94026.53;;;11.78;100.00
10946;BME280;5525;42.648;23.368;2024-01-06T12:47:25;94028.19;;;13.45;100.00
10946;BME280;5525;42.648;23.368;2024-01-06T12:49:52;94028.91;;;16.11;96.92
10946;BME280;5525;42.648;23.368;2024-01-06T12:52:20;94016.03;;;17.57;78.20
10946;BME280;5525;42.648;23.368;2024-01-06T12:54:47;94008.91;;;16.77;75.76
10946;BME280;5525;42.648;23.368;2024-01-06T12:57:14;94018.78;;;14.41;88.33
10946;BME280;5525;42.648;23.368;2024-01-06T12:59:41;93998.16;;;15.15;87.12